Ir al Módulo  



logo_vatsim
logo_vatsur

 


Nuevo Escenario de Bogotá Recomendado
Septiembre 18 de 2014

Los invitamos a conocer el escenario desarrollado por LR30 Scenery Design de SKBO. Vatsim Colombia lo reconoce como escenario oficial de la red.




Ruta
Julio 16 de 2014

Los invitamos a hacer uso de ésta gran herramienta!



 

 
Untitled Document
SKAR 230500Z 00000KT 9999 FEW020 SCT090 19/18 A3013
SKBG 230600Z 20003KT 8000 VCFG FEW010 BKN070 19/18 A3004
SKBO 231000Z VRB02KT 9999 FEW020 SCT080 09/08 A3032
SKBQ 231000Z 19006KT 6000 VCFG SCT012 BKN070 24/24 A2988 RMK VCFG/SW
SKCG 230900Z 18004KT 9999 SCT015 SCT200 26/24 A2982
SKCL 231000Z 00000KT 4000 BR FEW015 BKN090 18/17 A3000 RMK AD OPER IMC
SKPE 231000Z VRB02KT 4000 BCFG SCT007 17/16 A3012 RMK AD OPER IMC
SKRG 231000Z 00000KT 3000 DZ BKN004 BKN080 14/13 A3031